sensor_id;sensor_type;location;lat;lon;timestamp;P1;durP1;ratioP1;P2;durP2;ratioP2
10387;SDS011;5240;51.128;4.566;2022-09-09T07:41:40;30.42;;;6.28;;
10387;SDS011;5240;51.128;4.566;2022-09-09T07:44:14;35.67;;;9.85;;
10387;SDS011;5240;51.128;4.566;2022-09-09T07:46:43;11.13;;;4.05;;
10387;SDS011;5240;51.128;4.566;2022-09-09T07:49:11;18.00;;;5.03;;
10387;SDS011;5240;51.128;4.566;2022-09-09T07:51:39;20.98;;;5.25;;
10387;SDS011;5240;51.128;4.566;2022-09-09T07:54:08;9.95;;;3.05;;
10387;SDS011;5240;51.128;4.566;2022-09-09T07:59:13;11.02;;;2.83;;
10387;SDS011;5240;51.128;4.566;2022-09-09T08:01:41;33.63;;;8.70;;
10387;SDS011;5240;51.128;4.566;2022-09-09T08:07:00;12.27;;;3.70;;
10387;SDS011;5240;51.128;4.566;2022-09-09T08:09:41;7.28;;;2.63;;
10387;SDS011;5240;51.128;4.566;2022-09-09T08:12:08;11.30;;;3.03;;
10387;SDS011;5240;51.128;4.566;2022-09-09T08:14:42;10.88;;;3.33;;
10387;SDS011;5240;51.128;4.566;2022-09-09T08:17:10;8.40;;;2.90;;
10387;SDS011;5240;51.128;4.566;2022-09-09T08:19:37;10.27;;;3.40;;
10387;SDS011;5240;51.128;4.566;2022-09-09T08:22:04;6.38;;;2.42;;
10387;SDS011;5240;51.128;4.566;2022-09-09T08:24:32;7.93;;;2.40;;
10387;SDS011;5240;51.128;4.566;2022-09-09T08:27:00;10.25;;;2.92;;
10387;SDS011;5240;51.128;4.566;2022-09-09T08:29:30;8.40;;;2.72;;
10387;SDS011;5240;51.128;4.566;2022-09-09T08:31:59;8.57;;;2.65;;
10387;SDS011;5240;51.128;4.566;2022-09-09T08:34:26;9.93;;;2.90;;
10387;SDS011;5240;51.128;4.566;2022-09-09T08:36:55;8.68;;;2.85;;
10387;SDS011;5240;51.128;4.566;2022-09-09T08:39:22;12.52;;;2.80;;
10387;SDS011;5240;51.128;4.566;2022-09-09T08:41:56;6.85;;;2.50;;
10387;SDS011;5240;51.128;4.566;2022-09-09T08:44:38;7.53;;;2.80;;
10387;SDS011;5240;51.128;4.566;2022-09-09T08:47:18;9.73;;;2.60;;
10387;SDS011;5240;51.128;4.566;2022-09-09T08:50:00;9.57;;;2.90;;
10387;SDS011;5240;51.128;4.566;2022-09-09T08:58:32;12.40;;;3.50;;
10387;SDS011;5240;51.128;4.566;2022-09-09T09:01:20;8.65;;;2.67;;
10387;SDS011;5240;51.128;4.566;2022-09-09T09:04:14;9.23;;;2.65;;
10387;SDS011;5240;51.128;4.566;2022-09-09T09:07:01;8.45;;;2.50;;
10387;SDS011;5240;51.128;4.566;2022-09-09T09:09:37;7.65;;;2.33;;
10387;SDS011;5240;51.128;4.566;2022-09-09T09:12:18;8.30;;;2.78;;
10387;SDS011;5240;51.128;4.566;2022-09-09T09:14:50;9.25;;;2.92;;
10387;SDS011;5240;51.128;4.566;2022-09-09T09:17:20;6.88;;;2.35;;
10387;SDS011;5240;51.128;4.566;2022-09-09T09:19:55;9.25;;;2.80;;
10387;SDS011;5240;51.128;4.566;2022-09-09T09:22:29;8.45;;;2.55;;
10387;SDS011;5240;51.128;4.566;2022-09-09T09:25:11;7.88;;;2.58;;
10387;SDS011;5240;51.128;4.566;2022-09-09T09:27:46;11.75;;;3.38;;
10387;SDS011;5240;51.128;4.566;2022-09-09T09:30:21;7.85;;;3.53;;
10387;SDS011;5240;51.128;4.566;2022-09-09T09:32:51;13.65;;;3.47;;
10387;SDS011;5240;51.128;4.566;2022-09-09T09:35:23;9.45;;;2.97;;
10387;SDS011;5240;51.128;4.566;2022-09-09T09:37:50;14.07;;;3.60;;
10387;SDS011;5240;51.128;4.566;2022-09-09T09:40:17;15.27;;;3.75;;
10387;SDS011;5240;51.128;4.566;2022-09-09T09:42:51;8.68;;;3.60;;
10387;SDS011;5240;51.128;4.566;2022-09-09T09:45:26;11.98;;;3.28;;
10387;SDS011;5240;51.128;4.566;2022-09-09T09:47:58;8.50;;;2.92;;
10387;SDS011;5240;51.128;4.566;2022-09-09T09:50:27;10.55;;;3.13;;
10387;SDS011;5240;51.128;4.566;2022-09-09T09:52:55;7.78;;;2.72;;
10387;SDS011;5240;51.128;4.566;2022-09-09T09:55:23;6.38;;;2.47;;
10387;SDS011;5240;51.128;4.566;2022-09-09T09:57:52;8.60;;;3.35;;
10387;SDS011;5240;51.128;4.566;2022-09-09T10:00:20;7.78;;;2.53;;
10387;SDS011;5240;51.128;4.566;2022-09-09T10:02:48;10.43;;;2.72;;
10387;SDS011;5240;51.128;4.566;2022-09-09T10:05:20;11.90;;;3.08;;
10387;SDS011;5240;51.128;4.566;2022-09-09T10:08:00;8.88;;;2.53;;
10387;SDS011;5240;51.128;4.566;2022-09-09T10:10:32;9.30;;;2.88;;
10387;SDS011;5240;51.128;4.566;2022-09-09T10:13:02;7.35;;;2.30;;
10387;SDS011;5240;51.128;4.566;2022-09-09T10:15:36;7.75;;;2.58;;
10387;SDS011;5240;51.128;4.566;2022-09-09T10:18:10;8.05;;;3.00;;
10387;SDS011;5240;51.128;4.566;2022-09-09T10:20:42;6.10;;;2.40;;
10387;SDS011;5240;51.128;4.566;2022-09-09T10:23:17;8.50;;;2.60;;
10387;SDS011;5240;51.128;4.566;2022-09-09T10:28:40;6.03;;;2.47;;
10387;SDS011;5240;51.128;4.566;2022-09-09T10:31:16;5.95;;;2.47;;
10387;SDS011;5240;51.128;4.566;2022-09-09T10:33:48;8.02;;;2.88;;
10387;SDS011;5240;51.128;4.566;2022-09-09T10:36:18;7.50;;;2.92;;
10387;SDS011;5240;51.128;4.566;2022-09-09T10:38:48;7.53;;;2.30;;
10387;SDS011;5240;51.128;4.566;2022-09-09T10:41:19;6.43;;;2.67;;
10387;SDS011;5240;51.128;4.566;2022-09-09T10:43:57;9.27;;;3.00;;
10387;SDS011;5240;51.128;4.566;2022-09-09T10:46:31;7.20;;;2.30;;
10387;SDS011;5240;51.128;4.566;2022-09-09T10:49:07;7.25;;;2.45;;
10387;SDS011;5240;51.128;4.566;2022-09-09T10:51:40;6.25;;;2.25;;
10387;SDS011;5240;51.128;4.566;2022-09-09T10:54:21;6.93;;;2.40;;
10387;SDS011;5240;51.128;4.566;2022-09-09T10:56:52;7.50;;;2.40;;
10387;SDS011;5240;51.128;4.566;2022-09-09T10:59:23;8.35;;;2.60;;
10387;SDS011;5240;51.128;4.566;2022-09-09T11:01:52;5.80;;;1.88;;
10387;SDS011;5240;51.128;4.566;2022-09-09T11:04:21;7.40;;;2.35;;
10387;SDS011;5240;51.128;4.566;2022-09-09T11:06:49;4.90;;;2.03;;
10387;SDS011;5240;51.128;4.566;2022-09-09T11:09:19;5.53;;;1.98;;
10387;SDS011;5240;51.128;4.566;2022-09-09T11:11:49;5.45;;;2.13;;
10387;SDS011;5240;51.128;4.566;2022-09-09T11:14:19;5.78;;;2.10;;
10387;SDS011;5240;51.128;4.566;2022-09-09T11:16:49;5.88;;;2.47;;
10387;SDS011;5240;51.128;4.566;2022-09-09T11:19:19;5.75;;;2.20;;
10387;SDS011;5240;51.128;4.566;2022-09-09T11:21:49;4.93;;;2.17;;
10387;SDS011;5240;51.128;4.566;2022-09-09T11:24:18;7.30;;;2.40;;
10387;SDS011;5240;51.128;4.566;2022-09-09T11:26:49;6.13;;;2.00;;
10387;SDS011;5240;51.128;4.566;2022-09-09T11:29:23;7.72;;;2.67;;
10387;SDS011;5240;51.128;4.566;2022-09-09T11:31:57;5.75;;;2.42;;
10387;SDS011;5240;51.128;4.566;2022-09-09T11:34:36;6.43;;;2.33;;
10387;SDS011;5240;51.128;4.566;2022-09-09T11:37:13;7.53;;;2.22;;
10387;SDS011;5240;51.128;4.566;2022-09-09T11:39:56;7.75;;;2.03;;
10387;SDS011;5240;51.128;4.566;2022-09-09T11:42:29;5.53;;;2.10;;
10387;SDS011;5240;51.128;4.566;2022-09-09T11:45:08;8.77;;;2.20;;
10387;SDS011;5240;51.128;4.566;2022-09-09T11:47:38;6.43;;;2.00;;
10387;SDS011;5240;51.128;4.566;2022-09-09T11:50:09;9.50;;;2.20;;
10387;SDS011;5240;51.128;4.566;2022-09-09T11:52:38;6.45;;;1.83;;
10387;SDS011;5240;51.128;4.566;2022-09-09T11:55:10;5.90;;;1.85;;
10387;SDS011;5240;51.128;4.566;2022-09-09T11:57:40;4.47;;;2.08;;
10387;SDS011;5240;51.128;4.566;2022-09-09T12:02:51;4.63;;;1.80;;
10387;SDS011;5240;51.128;4.566;2022-09-09T12:05:19;3.60;;;1.70;;
10387;SDS011;5240;51.128;4.566;2022-09-09T12:07:48;4.78;;;2.05;;
10387;SDS011;5240;51.128;4.566;2022-09-09T12:10:22;4.53;;;1.70;;
10387;SDS011;5240;51.128;4.566;2022-09-09T12:12:52;4.57;;;1.48;;
10387;SDS011;5240;51.128;4.566;2022-09-09T12:15:21;3.42;;;1.83;;
10387;SDS011;5240;51.128;4.566;2022-09-09T12:17:53;4.18;;;1.70;;
10387;SDS011;5240;51.128;4.566;2022-09-09T12:20:23;6.13;;;1.67;;
10387;SDS011;5240;51.128;4.566;2022-09-09T12:25:35;5.40;;;1.45;;
10387;SDS011;5240;51.128;4.566;2022-09-09T12:31:05;6.88;;;1.80;;
10387;SDS011;5240;51.128;4.566;2022-09-09T12:33:34;4.78;;;1.73;;
10387;SDS011;5240;51.128;4.566;2022-09-09T12:36:02;3.53;;;1.45;;
10387;SDS011;5240;51.128;4.566;2022-09-09T12:38:31;3.50;;;1.50;;
10387;SDS011;5240;51.128;4.566;2022-09-09T12:40:59;4.30;;;1.60;;
10387;SDS011;5240;51.128;4.566;2022-09-09T12:43:27;4.97;;;1.67;;
10387;SDS011;5240;51.128;4.566;2022-09-09T12:45:56;5.43;;;1.55;;
10387;SDS011;5240;51.128;4.566;2022-09-09T12:48:28;4.13;;;1.55;;
10387;SDS011;5240;51.128;4.566;2022-09-09T12:50:58;6.18;;;1.50;;
10387;SDS011;5240;51.128;4.566;2022-09-09T12:53:26;3.38;;;1.48;;
10387;SDS011;5240;51.128;4.566;2022-09-09T12:55:56;4.72;;;1.67;;
10387;SDS011;5240;51.128;4.566;2022-09-09T12:58:24;3.72;;;1.70;;
10387;SDS011;5240;51.128;4.566;2022-09-09T13:00:54;3.20;;;1.58;;
10387;SDS011;5240;51.128;4.566;2022-09-09T13:03:22;4.13;;;1.70;;
10387;SDS011;5240;51.128;4.566;2022-09-09T13:05:51;3.85;;;2.42;;
10387;SDS011;5240;51.128;4.566;2022-09-09T13:08:19;6.18;;;1.70;;
10387;SDS011;5240;51.128;4.566;2022-09-09T13:10:47;4.05;;;1.80;;
10387;SDS011;5240;51.128;4.566;2022-09-09T13:13:19;4.50;;;1.85;;
10387;SDS011;5240;51.128;4.566;2022-09-09T13:15:48;4.65;;;1.70;;
10387;SDS011;5240;51.128;4.566;2022-09-09T13:18:16;5.32;;;1.75;;
10387;SDS011;5240;51.128;4.566;2022-09-09T13:20:46;5.82;;;2.03;;
10387;SDS011;5240;51.128;4.566;2022-09-09T13:23:15;5.53;;;1.70;;
10387;SDS011;5240;51.128;4.566;2022-09-09T13:25:52;2.83;;;1.45;;
10387;SDS011;5240;51.128;4.566;2022-09-09T13:28:20;4.18;;;1.90;;
10387;SDS011;5240;51.128;4.566;2022-09-09T13:30:54;5.13;;;1.75;;
10387;SDS011;5240;51.128;4.566;2022-09-09T13:33:28;3.75;;;1.40;;
10387;SDS011;5240;51.128;4.566;2022-09-09T13:35:56;4.05;;;1.73;;
10387;SDS011;5240;51.128;4.566;2022-09-09T13:41:35;4.60;;;1.70;;
10387;SDS011;5240;51.128;4.566;2022-09-09T13:44:04;3.90;;;1.60;;
10387;SDS011;5240;51.128;4.566;2022-09-09T13:46:33;3.42;;;1.73;;
10387;SDS011;5240;51.128;4.566;2022-09-09T13:49:01;4.47;;;2.00;;
10387;SDS011;5240;51.128;4.566;2022-09-09T13:51:32;9.80;;;4.18;;
10387;SDS011;5240;51.128;4.566;2022-09-09T13:54:02;3.42;;;1.60;;
10387;SDS011;5240;51.128;4.566;2022-09-09T13:56:32;4.68;;;1.80;;
10387;SDS011;5240;51.128;4.566;2022-09-09T13:59:00;4.20;;;1.50;;
10387;SDS011;5240;51.128;4.566;2022-09-09T14:01:27;3.50;;;1.77;;
10387;SDS011;5240;51.128;4.566;2022-09-09T14:03:55;4.90;;;1.48;;
10387;SDS011;5240;51.128;4.566;2022-09-09T14:06:22;6.13;;;1.70;;
10387;SDS011;5240;51.128;4.566;2022-09-09T14:08:49;4.55;;;1.77;;
10387;SDS011;5240;51.128;4.566;2022-09-09T14:11:17;1.80;;;1.30;;
10387;SDS011;5240;51.128;4.566;2022-09-09T14:13:47;4.30;;;1.48;;
10387;SDS011;5240;51.128;4.566;2022-09-09T14:16:15;4.35;;;1.75;;
10387;SDS011;5240;51.128;4.566;2022-09-09T14:18:43;4.72;;;1.58;;
10387;SDS011;5240;51.128;4.566;2022-09-09T14:21:10;2.58;;;1.52;;
10387;SDS011;5240;51.128;4.566;2022-09-09T14:23:38;4.00;;;1.63;;
10387;SDS011;5240;51.128;4.566;2022-09-09T14:26:05;5.10;;;1.75;;
10387;SDS011;5240;51.128;4.566;2022-09-09T14:28:33;3.03;;;1.42;;
10387;SDS011;5240;51.128;4.566;2022-09-09T14:31:02;6.82;;;1.85;;
10387;SDS011;5240;51.128;4.566;2022-09-09T14:33:30;3.75;;;2.03;;
10387;SDS011;5240;51.128;4.566;2022-09-09T14:35:57;5.45;;;1.58;;
10387;SDS011;5240;51.128;4.566;2022-09-09T14:38:28;7.70;;;1.70;;
10387;SDS011;5240;51.128;4.566;2022-09-09T14:40:55;4.78;;;1.45;;
10387;SDS011;5240;51.128;4.566;2022-09-09T14:43:23;2.63;;;1.40;;
10387;SDS011;5240;51.128;4.566;2022-09-09T14:45:51;2.72;;;1.60;;
10387;SDS011;5240;51.128;4.566;2022-09-09T14:48:21;3.42;;;1.48;;
10387;SDS011;5240;51.128;4.566;2022-09-09T14:50:48;4.40;;;1.33;;
10387;SDS011;5240;51.128;4.566;2022-09-09T14:53:16;2.88;;;1.50;;
10387;SDS011;5240;51.128;4.566;2022-09-09T14:55:43;3.03;;;1.65;;
10387;SDS011;5240;51.128;4.566;2022-09-09T14:58:11;2.90;;;1.48;;
10387;SDS011;5240;51.128;4.566;2022-09-09T15:00:39;3.85;;;1.73;;
10387;SDS011;5240;51.128;4.566;2022-09-09T15:03:06;3.88;;;1.60;;
10387;SDS011;5240;51.128;4.566;2022-09-09T15:05:37;3.50;;;1.40;;
10387;SDS011;5240;51.128;4.566;2022-09-09T15:08:04;3.38;;;1.33;;
10387;SDS011;5240;51.128;4.566;2022-09-09T15:10:31;2.80;;;1.60;;
10387;SDS011;5240;51.128;4.566;2022-09-09T15:12:59;2.40;;;1.27;;
10387;SDS011;5240;51.128;4.566;2022-09-09T15:15:26;2.10;;;1.50;;
10387;SDS011;5240;51.128;4.566;2022-09-09T15:17:53;2.50;;;1.40;;
10387;SDS011;5240;51.128;4.566;2022-09-09T15:20:21;3.30;;;1.40;;
10387;SDS011;5240;51.128;4.566;2022-09-09T15:22:49;2.22;;;1.27;;
10387;SDS011;5240;51.128;4.566;2022-09-09T15:25:17;1.17;;;0.98;;
10387;SDS011;5240;51.128;4.566;2022-09-09T15:27:45;1.98;;;1.10;;
10387;SDS011;5240;51.128;4.566;2022-09-09T15:30:12;2.20;;;1.00;;
10387;SDS011;5240;51.128;4.566;2022-09-09T15:32:39;2.17;;;1.08;;
10387;SDS011;5240;51.128;4.566;2022-09-09T15:35:07;2.00;;;1.10;;
10387;SDS011;5240;51.128;4.566;2022-09-09T15:37:34;2.58;;;1.27;;
10387;SDS011;5240;51.128;4.566;2022-09-09T15:40:04;3.78;;;1.42;;
10387;SDS011;5240;51.128;4.566;2022-09-09T15:42:31;2.83;;;1.30;;
10387;SDS011;5240;51.128;4.566;2022-09-09T15:44:58;2.63;;;1.27;;
10387;SDS011;5240;51.128;4.566;2022-09-09T15:47:26;2.78;;;1.23;;
10387;SDS011;5240;51.128;4.566;2022-09-09T15:49:53;2.70;;;1.33;;
10387;SDS011;5240;51.128;4.566;2022-09-09T15:52:20;1.52;;;1.23;;
10387;SDS011;5240;51.128;4.566;2022-09-09T15:54:48;1.73;;;1.38;;
10387;SDS011;5240;51.128;4.566;2022-09-09T15:57:17;2.40;;;1.40;;
10387;SDS011;5240;51.128;4.566;2022-09-09T15:59:44;2.60;;;1.30;;
10387;SDS011;5240;51.128;4.566;2022-09-09T16:02:11;3.92;;;1.60;;
10387;SDS011;5240;51.128;4.566;2022-09-09T16:04:39;3.03;;;1.48;;
10387;SDS011;5240;51.128;4.566;2022-09-09T16:07:06;2.47;;;1.60;;
10387;SDS011;5240;51.128;4.566;2022-09-09T16:09:33;2.25;;;1.45;;
10387;SDS011;5240;51.128;4.566;2022-09-09T16:12:01;4.25;;;1.60;;
10387;SDS011;5240;51.128;4.566;2022-09-09T16:14:32;2.63;;;1.40;;
10387;SDS011;5240;51.128;4.566;2022-09-09T16:17:01;5.03;;;1.45;;
10387;SDS011;5240;51.128;4.566;2022-09-09T16:19:28;1.75;;;1.50;;
10387;SDS011;5240;51.128;4.566;2022-09-09T16:21:55;3.53;;;1.88;;
10387;SDS011;5240;51.128;4.566;2022-09-09T16:24:22;5.55;;;1.60;;
10387;SDS011;5240;51.128;4.566;2022-09-09T16:26:51;2.92;;;1.60;;
10387;SDS011;5240;51.128;4.566;2022-09-09T16:29:19;4.53;;;1.70;;
10387;SDS011;5240;51.128;4.566;2022-09-09T16:31:48;3.13;;;1.90;;
10387;SDS011;5240;51.128;4.566;2022-09-09T16:34:17;2.58;;;1.75;;
10387;SDS011;5240;51.128;4.566;2022-09-09T16:36:44;4.10;;;2.30;;
10387;SDS011;5240;51.128;4.566;2022-09-09T16:39:13;3.25;;;2.00;;
10387;SDS011;5240;51.128;4.566;2022-09-09T16:41:41;5.32;;;2.17;;
10387;SDS011;5240;51.128;4.566;2022-09-09T16:44:09;4.85;;;2.45;;
10387;SDS011;5240;51.128;4.566;2022-09-09T16:46:37;4.72;;;1.90;;
10387;SDS011;5240;51.128;4.566;2022-09-09T16:49:07;5.35;;;2.47;;
10387;SDS011;5240;51.128;4.566;2022-09-09T16:51:35;5.75;;;2.60;;
10387;SDS011;5240;51.128;4.566;2022-09-09T16:54:07;7.35;;;2.70;;
10387;SDS011;5240;51.128;4.566;2022-09-09T16:56:35;7.13;;;3.30;;
10387;SDS011;5240;51.128;4.566;2022-09-09T16:59:03;5.28;;;2.60;;
10387;SDS011;5240;51.128;4.566;2022-09-09T17:01:35;6.82;;;3.08;;
10387;SDS011;5240;51.128;4.566;2022-09-09T17:04:03;4.53;;;2.75;;
10387;SDS011;5240;51.128;4.566;2022-09-09T17:06:33;6.70;;;2.90;;
10387;SDS011;5240;51.128;4.566;2022-09-09T17:09:03;8.00;;;3.47;;
10387;SDS011;5240;51.128;4.566;2022-09-09T17:11:31;7.55;;;3.08;;
10387;SDS011;5240;51.128;4.566;2022-09-09T17:13:58;5.75;;;3.20;;
10387;SDS011;5240;51.128;4.566;2022-09-09T17:16:27;6.93;;;3.22;;
10387;SDS011;5240;51.128;4.566;2022-09-09T17:18:54;5.18;;;3.20;;
10387;SDS011;5240;51.128;4.566;2022-09-09T17:21:22;5.25;;;3.30;;
10387;SDS011;5240;51.128;4.566;2022-09-09T17:23:51;6.18;;;3.55;;
10387;SDS011;5240;51.128;4.566;2022-09-09T17:26:20;5.82;;;4.75;;
10387;SDS011;5240;51.128;4.566;2022-09-09T17:28:49;6.47;;;3.50;;
10387;SDS011;5240;51.128;4.566;2022-09-09T17:31:17;7.97;;;3.65;;
10387;SDS011;5240;51.128;4.566;2022-09-09T17:33:46;6.80;;;3.67;;
10387;SDS011;5240;51.128;4.566;2022-09-09T17:36:15;7.25;;;3.70;;
10387;SDS011;5240;51.128;4.566;2022-09-09T17:38:42;7.75;;;3.55;;
10387;SDS011;5240;51.128;4.566;2022-09-09T17:41:12;8.23;;;3.58;;
10387;SDS011;5240;51.128;4.566;2022-09-09T17:43:39;6.93;;;3.33;;
10387;SDS011;5240;51.128;4.566;2022-09-09T17:46:07;6.10;;;3.53;;
10387;SDS011;5240;51.128;4.566;2022-09-09T17:48:35;5.93;;;3.45;;
10387;SDS011;5240;51.128;4.566;2022-09-09T17:51:03;5.03;;;3.30;;
10387;SDS011;5240;51.128;4.566;2022-09-09T17:53:31;6.15;;;3.55;;
10387;SDS011;5240;51.128;4.566;2022-09-09T17:56:02;5.40;;;3.40;;
10387;SDS011;5240;51.128;4.566;2022-09-09T17:58:31;5.00;;;3.42;;
10387;SDS011;5240;51.128;4.566;2022-09-09T18:01:03;7.18;;;3.50;;
10387;SDS011;5240;51.128;4.566;2022-09-09T18:03:32;5.03;;;3.30;;
10387;SDS011;5240;51.128;4.566;2022-09-09T18:06:00;5.90;;;3.35;;
10387;SDS011;5240;51.128;4.566;2022-09-09T18:08:28;6.38;;;3.55;;
10387;SDS011;5240;51.128;4.566;2022-09-09T18:10:56;5.50;;;3.42;;
10387;SDS011;5240;51.128;4.566;2022-09-09T18:13:23;5.82;;;3.38;;
10387;SDS011;5240;51.128;4.566;2022-09-09T18:15:52;6.05;;;3.42;;
10387;SDS011;5240;51.128;4.566;2022-09-09T18:18:19;6.00;;;3.38;;
10387;SDS011;5240;51.128;4.566;2022-09-09T18:23:23;7.82;;;3.38;;
10387;SDS011;5240;51.128;4.566;2022-09-09T18:25:50;6.80;;;3.40;;
10387;SDS011;5240;51.128;4.566;2022-09-09T18:28:17;6.80;;;3.80;;
10387;SDS011;5240;51.128;4.566;2022-09-09T18:30:45;5.55;;;3.45;;
10387;SDS011;5240;51.128;4.566;2022-09-09T18:33:14;5.03;;;3.60;;
10387;SDS011;5240;51.128;4.566;2022-09-09T18:35:41;5.88;;;3.80;;
10387;SDS011;5240;51.128;4.566;2022-09-09T18:38:10;6.53;;;3.80;;
10387;SDS011;5240;51.128;4.566;2022-09-09T18:40:38;7.15;;;3.72;;
10387;SDS011;5240;51.128;4.566;2022-09-09T18:43:05;7.53;;;3.70;;
10387;SDS011;5240;51.128;4.566;2022-09-09T18:45:34;6.28;;;3.72;;
10387;SDS011;5240;51.128;4.566;2022-09-09T18:48:02;6.07;;;3.88;;
10387;SDS011;5240;51.128;4.566;2022-09-09T18:50:32;5.57;;;3.90;;
10387;SDS011;5240;51.128;4.566;2022-09-09T18:52:59;5.85;;;4.25;;
10387;SDS011;5240;51.128;4.566;2022-09-09T18:55:26;8.57;;;4.78;;
10387;SDS011;5240;51.128;4.566;2022-09-09T18:57:54;5.88;;;3.97;;
10387;SDS011;5240;51.128;4.566;2022-09-09T19:00:23;6.65;;;4.03;;
10387;SDS011;5240;51.128;4.566;2022-09-09T19:02:50;10.00;;;4.57;;
10387;SDS011;5240;51.128;4.566;2022-09-09T19:05:17;6.78;;;4.50;;
10387;SDS011;5240;51.128;4.566;2022-09-09T19:07:46;5.75;;;4.32;;
10387;SDS011;5240;51.128;4.566;2022-09-09T19:10:13;6.32;;;4.68;;
10387;SDS011;5240;51.128;4.566;2022-09-09T19:12:40;8.68;;;4.63;;
10387;SDS011;5240;51.128;4.566;2022-09-09T19:15:08;6.18;;;4.80;;
10387;SDS011;5240;51.128;4.566;2022-09-09T19:17:35;6.80;;;4.03;;
10387;SDS011;5240;51.128;4.566;2022-09-09T19:20:03;6.07;;;4.43;;
10387;SDS011;5240;51.128;4.566;2022-09-09T19:22:33;5.75;;;3.50;;
10387;SDS011;5240;51.128;4.566;2022-09-09T19:25:03;6.00;;;3.63;;
10387;SDS011;5240;51.128;4.566;2022-09-09T19:27:31;7.28;;;3.10;;
10387;SDS011;5240;51.128;4.566;2022-09-09T19:29:58;6.05;;;3.15;;
10387;SDS011;5240;51.128;4.566;2022-09-09T19:32:26;7.22;;;2.85;;
10387;SDS011;5240;51.128;4.566;2022-09-09T19:34:53;10.18;;;3.13;;
10387;SDS011;5240;51.128;4.566;2022-09-09T19:37:21;9.07;;;2.95;;
10387;SDS011;5240;51.128;4.566;2022-09-09T19:39:48;7.95;;;2.60;;
10387;SDS011;5240;51.128;4.566;2022-09-09T19:42:17;7.50;;;2.95;;
10387;SDS011;5240;51.128;4.566;2022-09-09T19:44:45;6.82;;;2.78;;
10387;SDS011;5240;51.128;4.566;2022-09-09T19:47:13;9.55;;;2.85;;
10387;SDS011;5240;51.128;4.566;2022-09-09T19:49:40;9.27;;;2.58;;
10387;SDS011;5240;51.128;4.566;2022-09-09T19:52:07;11.68;;;2.75;;
10387;SDS011;5240;51.128;4.566;2022-09-09T19:54:35;8.00;;;2.60;;
10387;SDS011;5240;51.128;4.566;2022-09-09T19:57:03;6.90;;;2.53;;
10387;SDS011;5240;51.128;4.566;2022-09-09T19:59:32;7.72;;;2.70;;
10387;SDS011;5240;51.128;4.566;2022-09-09T20:02:00;6.97;;;2.95;;
10387;SDS011;5240;51.128;4.566;2022-09-09T20:04:27;6.60;;;2.55;;
10387;SDS011;5240;51.128;4.566;2022-09-09T20:06:54;8.18;;;2.50;;
10387;SDS011;5240;51.128;4.566;2022-09-09T20:09:21;8.75;;;2.75;;
10387;SDS011;5240;51.128;4.566;2022-09-09T20:11:50;11.20;;;3.05;;
10387;SDS011;5240;51.128;4.566;2022-09-09T20:14:17;8.73;;;3.03;;
10387;SDS011;5240;51.128;4.566;2022-09-09T20:16:46;7.40;;;2.72;;
10387;SDS011;5240;51.128;4.566;2022-09-09T20:19:14;12.60;;;2.70;;
10387;SDS011;5240;51.128;4.566;2022-09-09T20:21:42;11.25;;;2.78;;
10387;SDS011;5240;51.128;4.566;2022-09-09T20:24:10;9.02;;;2.42;;
10387;SDS011;5240;51.128;4.566;2022-09-09T20:26:38;6.38;;;2.70;;
10387;SDS011;5240;51.128;4.566;2022-09-09T20:29:05;6.22;;;2.47;;
10387;SDS011;5240;51.128;4.566;2022-09-09T20:31:34;10.45;;;2.90;;
10387;SDS011;5240;51.128;4.566;2022-09-09T20:34:05;6.55;;;2.47;;
10387;SDS011;5240;51.128;4.566;2022-09-09T20:36:34;12.27;;;3.28;;
10387;SDS011;5240;51.128;4.566;2022-09-09T20:39:03;6.00;;;2.50;;
10387;SDS011;5240;51.128;4.566;2022-09-09T20:41:33;7.43;;;2.60;;
10387;SDS011;5240;51.128;4.566;2022-09-09T20:44:01;8.57;;;2.72;;
10387;SDS011;5240;51.128;4.566;2022-09-09T20:46:29;12.05;;;2.95;;
10387;SDS011;5240;51.128;4.566;2022-09-09T20:48:57;11.27;;;2.80;;
10387;SDS011;5240;51.128;4.566;2022-09-09T20:51:27;9.98;;;3.13;;
10387;SDS011;5240;51.128;4.566;2022-09-09T20:53:58;9.60;;;3.03;;
10387;SDS011;5240;51.128;4.566;2022-09-09T20:56:28;6.88;;;2.58;;
10387;SDS011;5240;51.128;4.566;2022-09-09T20:58:56;6.60;;;2.90;;
10387;SDS011;5240;51.128;4.566;2022-09-09T21:01:24;5.95;;;2.58;;
10387;SDS011;5240;51.128;4.566;2022-09-09T21:03:51;8.13;;;2.80;;
10387;SDS011;5240;51.128;4.566;2022-09-09T21:06:19;6.32;;;2.65;;
10387;SDS011;5240;51.128;4.566;2022-09-09T21:08:48;8.43;;;2.70;;
10387;SDS011;5240;51.128;4.566;2022-09-09T21:11:15;6.22;;;2.80;;
10387;SDS011;5240;51.128;4.566;2022-09-09T21:13:42;9.13;;;2.83;;
10387;SDS011;5240;51.128;4.566;2022-09-09T21:16:11;6.93;;;2.70;;
10387;SDS011;5240;51.128;4.566;2022-09-09T21:18:39;7.53;;;2.88;;
10387;SDS011;5240;51.128;4.566;2022-09-09T21:21:07;9.40;;;2.90;;
10387;SDS011;5240;51.128;4.566;2022-09-09T21:23:34;7.70;;;3.05;;
10387;SDS011;5240;51.128;4.566;2022-09-09T21:26:03;7.85;;;2.90;;
10387;SDS011;5240;51.128;4.566;2022-09-09T21:28:31;5.90;;;2.92;;
10387;SDS011;5240;51.128;4.566;2022-09-09T21:30:59;11.73;;;3.20;;
10387;SDS011;5240;51.128;4.566;2022-09-09T21:33:27;8.02;;;2.97;;
10387;SDS011;5240;51.128;4.566;2022-09-09T21:35:55;8.93;;;3.28;;
10387;SDS011;5240;51.128;4.566;2022-09-09T21:38:22;7.65;;;3.08;;
10387;SDS011;5240;51.128;4.566;2022-09-09T21:40:50;8.05;;;3.00;;
10387;SDS011;5240;51.128;4.566;2022-09-09T21:43:19;13.63;;;3.80;;
10387;SDS011;5240;51.128;4.566;2022-09-09T21:45:47;8.35;;;3.28;;
10387;SDS011;5240;51.128;4.566;2022-09-09T21:48:16;7.75;;;4.00;;
10387;SDS011;5240;51.128;4.566;2022-09-09T21:50:44;11.00;;;3.92;;
10387;SDS011;5240;51.128;4.566;2022-09-09T21:53:12;11.95;;;4.55;;
10387;SDS011;5240;51.128;4.566;2022-09-09T21:55:40;8.40;;;3.88;;
10387;SDS011;5240;51.128;4.566;2022-09-09T21:58:10;8.55;;;4.13;;
10387;SDS011;5240;51.128;4.566;2022-09-09T22:00:40;13.13;;;4.10;;
10387;SDS011;5240;51.128;4.566;2022-09-09T22:03:09;8.13;;;3.88;;
10387;SDS011;5240;51.128;4.566;2022-09-09T22:05:38;8.73;;;4.30;;
10387;SDS011;5240;51.128;4.566;2022-09-09T22:08:06;8.07;;;3.55;;
10387;SDS011;5240;51.128;4.566;2022-09-09T22:10:34;8.27;;;3.78;;
10387;SDS011;5240;51.128;4.566;2022-09-09T22:13:02;9.85;;;3.85;;
10387;SDS011;5240;51.128;4.566;2022-09-09T22:15:29;8.88;;;3.70;;
10387;SDS011;5240;51.128;4.566;2022-09-09T22:17:59;10.00;;;3.60;;
10387;SDS011;5240;51.128;4.566;2022-09-09T22:20:28;8.93;;;3.60;;
10387;SDS011;5240;51.128;4.566;2022-09-09T22:22:57;11.15;;;3.83;;
10387;SDS011;5240;51.128;4.566;2022-09-09T22:25:24;8.80;;;3.53;;
10387;SDS011;5240;51.128;4.566;2022-09-09T22:27:51;9.18;;;3.95;;
10387;SDS011;5240;51.128;4.566;2022-09-09T22:30:20;9.82;;;3.83;;
10387;SDS011;5240;51.128;4.566;2022-09-09T22:32:47;9.73;;;3.55;;
10387;SDS011;5240;51.128;4.566;2022-09-09T22:35:16;9.10;;;3.78;;
10387;SDS011;5240;51.128;4.566;2022-09-09T22:37:43;8.13;;;3.95;;
10387;SDS011;5240;51.128;4.566;2022-09-09T22:40:11;12.40;;;4.38;;
10387;SDS011;5240;51.128;4.566;2022-09-09T22:42:39;9.85;;;3.55;;
10387;SDS011;5240;51.128;4.566;2022-09-09T22:45:07;12.40;;;4.20;;
10387;SDS011;5240;51.128;4.566;2022-09-09T22:47:34;10.55;;;4.05;;
10387;SDS011;5240;51.128;4.566;2022-09-09T22:50:02;11.27;;;4.20;;
10387;SDS011;5240;51.128;4.566;2022-09-09T22:52:30;11.98;;;4.40;;
10387;SDS011;5240;51.128;4.566;2022-09-09T22:54:58;7.60;;;4.20;;
10387;SDS011;5240;51.128;4.566;2022-09-09T22:57:25;9.98;;;4.25;;
10387;SDS011;5240;51.128;4.566;2022-09-09T22:59:53;9.93;;;4.22;;
10387;SDS011;5240;51.128;4.566;2022-09-09T23:02:20;10.02;;;4.72;;
10387;SDS011;5240;51.128;4.566;2022-09-09T23:04:48;10.52;;;4.38;;
10387;SDS011;5240;51.128;4.566;2022-09-09T23:07:15;10.43;;;4.55;;
10387;SDS011;5240;51.128;4.566;2022-09-09T23:09:48;12.40;;;4.78;;
10387;SDS011;5240;51.128;4.566;2022-09-09T23:12:16;16.40;;;5.15;;
10387;SDS011;5240;51.128;4.566;2022-09-09T23:14:44;11.52;;;4.90;;
10387;SDS011;5240;51.128;4.566;2022-09-09T23:17:12;11.18;;;5.03;;
10387;SDS011;5240;51.128;4.566;2022-09-09T23:19:41;10.10;;;4.97;;
10387;SDS011;5240;51.128;4.566;2022-09-09T23:22:08;10.57;;;4.90;;